Terminal Aerodrome Forecast
Issued by NWS Newport/Morehead City, NC

Home | Current Version | Previous Version | Graphics & Text | Print | Product List | Glossary On
Versions: 1 2 3 4 5 6 7 8 9 10 11 12 13
969
FTUS42 KMHX 261121
TAFEWN
TAF
KEWN 261121Z 2612/2712 35005KT P6SM BKN200
     FM261900 09006KT P6SM SCT150
     FM270200 00000KT P6SM FEW250
     FM270800 VRB03KT 5SM BR SCT150=

USA.gov is the U.S. government's official web portal to all federal, state and local government web resources and services.